sensor_id;sensor_type;location;lat;lon;timestamp;pressure;altitude;pressure_sealevel;temperature;humidity
56402;BME280;42299;35.160;26.100;2023-04-23T00:01:20;100920.78;;;15.42;100.00
56402;BME280;42299;35.160;26.100;2023-04-23T00:02:47;100924.31;;;15.41;100.00
56402;BME280;42299;35.160;26.100;2023-04-23T00:04:14;100921.66;;;15.41;100.00
56402;BME280;42299;35.160;26.100;2023-04-23T00:05:40;100928.75;;;15.40;100.00
56402;BME280;42299;35.160;26.100;2023-04-23T00:07:04;100921.66;;;15.39;100.00
56402;BME280;42299;35.160;26.100;2023-04-23T00:08:29;100921.66;;;15.38;100.00
56402;BME280;42299;35.160;26.100;2023-04-23T00:09:51;100924.31;;;15.38;100.00
56402;BME280;42299;35.160;26.100;2023-04-23T00:11:18;100924.31;;;15.39;100.00
56402;BME280;42299;35.160;26.100;2023-04-23T00:12:45;100927.84;;;15.40;100.00
56402;BME280;42299;35.160;26.100;2023-04-23T00:14:08;100926.97;;;15.39;100.00
56402;BME280;42299;35.160;26.100;2023-04-23T00:15:31;100926.97;;;15.39;100.00
56402;BME280;42299;35.160;26.100;2023-04-23T00:16:54;100932.28;;;15.44;100.00
56402;BME280;42299;35.160;26.100;2023-04-23T00:18:15;100935.81;;;15.50;100.00
56402;BME280;42299;35.160;26.100;2023-04-23T00:19:39;100934.06;;;15.57;100.00
56402;BME280;42299;35.160;26.100;2023-04-23T00:21:03;100936.72;;;15.66;100.00
56402;BME280;42299;35.160;26.100;2023-04-23T00:22:26;100937.59;;;15.74;100.00
56402;BME280;42299;35.160;26.100;2023-04-23T00:23:47;100940.19;;;15.83;100.00
56402;BME280;42299;35.160;26.100;2023-04-23T00:25:09;100939.31;;;15.87;100.00
56402;BME280;42299;35.160;26.100;2023-04-23T00:26:31;100942.84;;;15.91;100.00
56402;BME280;42299;35.160;26.100;2023-04-23T00:27:53;100933.94;;;15.95;100.00
56402;BME280;42299;35.160;26.100;2023-04-23T00:29:15;100939.28;;;15.98;100.00
56402;BME280;42299;35.160;26.100;2023-04-23T00:30:37;100932.19;;;16.00;100.00
56402;BME280;42299;35.160;26.100;2023-04-23T00:31:58;100937.47;;;16.02;100.00
56402;BME280;42299;35.160;26.100;2023-04-23T00:33:21;100941.91;;;16.06;100.00
56402;BME280;42299;35.160;26.100;2023-04-23T00:34:43;100942.78;;;16.09;100.00
56402;BME280;42299;35.160;26.100;2023-04-23T00:36:09;100934.78;;;16.12;100.00
56402;BME280;42299;35.160;26.100;2023-04-23T00:37:32;100936.53;;;16.18;100.00
56402;BME280;42299;35.160;26.100;2023-04-23T00:38:53;100932.97;;;16.20;100.00
56402;BME280;42299;35.160;26.100;2023-04-23T00:40:15;100938.28;;;16.22;100.00
56402;BME280;42299;35.160;26.100;2023-04-23T00:41:38;100932.94;;;16.25;100.00
56402;BME280;42299;35.160;26.100;2023-04-23T00:43:01;100930.25;;;16.29;100.00
56402;BME280;42299;35.160;26.100;2023-04-23T00:44:23;100929.34;;;16.32;100.00
56402;BME280;42299;35.160;26.100;2023-04-23T00:45:46;100924.03;;;16.32;100.00
56402;BME280;42299;35.160;26.100;2023-04-23T00:47:08;100927.59;;;16.28;100.00
56402;BME280;42299;35.160;26.100;2023-04-23T00:48:32;100925.84;;;16.24;100.00
56402;BME280;42299;35.160;26.100;2023-04-23T00:49:55;100936.53;;;16.21;100.00
56402;BME280;42299;35.160;26.100;2023-04-23T00:51:20;100927.69;;;16.11;100.00
56402;BME280;42299;35.160;26.100;2023-04-23T00:52:42;100927.72;;;15.99;100.00
56402;BME280;42299;35.160;26.100;2023-04-23T00:54:04;100927.72;;;15.98;100.00
56402;BME280;42299;35.160;26.100;2023-04-23T00:55:27;100928.63;;;15.98;100.00
56402;BME280;42299;35.160;26.100;2023-04-23T00:56:49;100927.72;;;15.98;100.00
56402;BME280;42299;35.160;26.100;2023-04-23T00:58:10;100937.50;;;15.99;100.00
56402;BME280;42299;35.160;26.100;2023-04-23T00:59:33;100934.84;;;15.99;100.00
56402;BME280;42299;35.160;26.100;2023-04-23T01:00:56;100932.19;;;16.00;100.00
56402;BME280;42299;35.160;26.100;2023-04-23T01:02:19;100929.47;;;16.02;100.00
56402;BME280;42299;35.160;26.100;2023-04-23T01:03:40;100929.50;;;16.00;100.00
56402;BME280;42299;35.160;26.100;2023-04-23T01:05:04;100925.97;;;16.00;100.00
56402;BME280;42299;35.160;26.100;2023-04-23T01:06:30;100923.28;;;16.03;100.00
56402;BME280;42299;35.160;26.100;2023-04-23T01:07:53;100929.47;;;16.08;100.00
56402;BME280;42299;35.160;26.100;2023-04-23T01:09:14;100932.16;;;16.08;100.00
56402;BME280;42299;35.160;26.100;2023-04-23T01:10:37;100925.94;;;16.07;100.00
56402;BME280;42299;35.160;26.100;2023-04-23T01:12:00;100928.59;;;16.07;100.00
56402;BME280;42299;35.160;26.100;2023-04-23T01:13:23;100918.84;;;16.08;100.00
56402;BME280;42299;35.160;26.100;2023-04-23T01:14:49;100926.81;;;16.08;100.00
56402;BME280;42299;35.160;26.100;2023-04-23T01:16:11;100925.91;;;16.10;100.00
56402;BME280;42299;35.160;26.100;2023-04-23T01:17:33;100929.47;;;16.14;100.00
56402;BME280;42299;35.160;26.100;2023-04-23T01:18:54;100925.88;;;16.16;100.00
56402;BME280;42299;35.160;26.100;2023-04-23T01:20:18;100930.31;;;16.20;100.00
56402;BME280;42299;35.160;26.100;2023-04-23T01:21:42;100927.63;;;16.22;100.00
56402;BME280;42299;35.160;26.100;2023-04-23T01:23:05;100931.16;;;16.24;100.00
56402;BME280;42299;35.160;26.100;2023-04-23T01:24:29;100936.50;;;16.24;100.00
56402;BME280;42299;35.160;26.100;2023-04-23T01:25:51;100929.41;;;16.24;100.00
56402;BME280;42299;35.160;26.100;2023-04-23T01:27:14;100932.94;;;16.25;100.00
56402;BME280;42299;35.160;26.100;2023-04-23T01:28:35;100935.59;;;16.25;100.00
56402;BME280;42299;35.160;26.100;2023-04-23T01:29:58;100932.94;;;16.23;100.00
56402;BME280;42299;35.160;26.100;2023-04-23T01:31:21;100942.72;;;16.26;100.00
56402;BME280;42299;35.160;26.100;2023-04-23T01:32:42;100929.41;;;16.23;100.00
56402;BME280;42299;35.160;26.100;2023-04-23T01:34:05;100930.28;;;16.23;100.00
56402;BME280;42299;35.160;26.100;2023-04-23T01:35:28;100933.84;;;16.25;100.00
56402;BME280;42299;35.160;26.100;2023-04-23T01:36:52;100932.06;;;16.26;100.00
56402;BME280;42299;35.160;26.100;2023-04-23T01:38:16;100932.94;;;16.26;100.00
56402;BME280;42299;35.160;26.100;2023-04-23T01:39:39;100930.28;;;16.25;100.00
56402;BME280;42299;35.160;26.100;2023-04-23T01:41:00;100928.50;;;16.24;100.00
56402;BME280;42299;35.160;26.100;2023-04-23T01:42:22;100929.41;;;16.23;100.00
56402;BME280;42299;35.160;26.100;2023-04-23T01:43:45;100921.41;;;16.21;100.00
56402;BME280;42299;35.160;26.100;2023-04-23T01:45:09;100924.97;;;16.19;100.00
56402;BME280;42299;35.160;26.100;2023-04-23T01:46:30;100922.34;;;16.14;100.00
56402;BME280;42299;35.160;26.100;2023-04-23T01:47:53;100920.56;;;16.12;100.00
56402;BME280;42299;35.160;26.100;2023-04-23T01:49:16;100918.81;;;16.12;100.00
56402;BME280;42299;35.160;26.100;2023-04-23T01:50:37;100913.47;;;16.09;100.00
56402;BME280;42299;35.160;26.100;2023-04-23T01:52:00;100923.25;;;16.09;100.00
56402;BME280;42299;35.160;26.100;2023-04-23T01:53:23;100915.28;;;16.06;100.00
56402;BME280;42299;35.160;26.100;2023-04-23T01:54:45;100920.59;;;16.04;100.00
56402;BME280;42299;35.160;26.100;2023-04-23T01:56:08;100925.94;;;16.03;100.00
56402;BME280;42299;35.160;26.100;2023-04-23T01:57:31;100922.41;;;16.01;100.00
56402;BME280;42299;35.160;26.100;2023-04-23T01:58:53;100921.53;;;15.97;100.00
56402;BME280;42299;35.160;26.100;2023-04-23T02:00:16;100920.63;;;15.97;100.00
56402;BME280;42299;35.160;26.100;2023-04-23T02:01:41;100924.22;;;15.92;100.00
56402;BME280;42299;35.160;26.100;2023-04-23T02:03:04;100925.97;;;15.90;100.00
56402;BME280;42299;35.160;26.100;2023-04-23T02:04:27;100933.09;;;15.91;100.00
56402;BME280;42299;35.160;26.100;2023-04-23T02:05:49;100928.66;;;15.93;100.00
56402;BME280;42299;35.160;26.100;2023-04-23T02:07:15;100929.53;;;15.94;100.00
56402;BME280;42299;35.160;26.100;2023-04-23T02:08:38;100927.72;;;15.96;100.00
56402;BME280;42299;35.160;26.100;2023-04-23T02:10:01;100925.97;;;15.97;100.00
56402;BME280;42299;35.160;26.100;2023-04-23T02:11:22;100923.28;;;15.98;100.00
56402;BME280;42299;35.160;26.100;2023-04-23T02:12:46;100927.72;;;15.98;100.00
56402;BME280;42299;35.160;26.100;2023-04-23T02:14:09;100922.41;;;15.99;100.00
56402;BME280;42299;35.160;26.100;2023-04-23T02:15:31;100923.28;;;15.98;100.00
56402;BME280;42299;35.160;26.100;2023-04-23T02:16:54;100935.72;;;15.98;100.00
56402;BME280;42299;35.160;26.100;2023-04-23T02:18:16;100929.50;;;15.95;100.00
56402;BME280;42299;35.160;26.100;2023-04-23T02:19:39;100934.84;;;15.95;100.00
56402;BME280;42299;35.160;26.100;2023-04-23T02:21:00;100926.88;;;15.94;100.00
56402;BME280;42299;35.160;26.100;2023-04-23T02:22:23;100922.44;;;15.91;100.00
56402;BME280;42299;35.160;26.100;2023-04-23T02:23:47;100923.31;;;15.89;100.00
56402;BME280;42299;35.160;26.100;2023-04-23T02:25:10;100922.47;;;15.85;100.00
56402;BME280;42299;35.160;26.100;2023-04-23T02:26:35;100925.13;;;15.82;100.00
56402;BME280;42299;35.160;26.100;2023-04-23T02:27:58;100931.34;;;15.81;100.00
56402;BME280;42299;35.160;26.100;2023-04-23T02:29:21;100929.56;;;15.79;100.00
56402;BME280;42299;35.160;26.100;2023-04-23T02:30:43;100928.69;;;15.77;100.00
56402;BME280;42299;35.160;26.100;2023-04-23T02:32:07;100929.56;;;15.77;100.00
56402;BME280;42299;35.160;26.100;2023-04-23T02:33:31;100926.03;;;15.78;100.00
56402;BME280;42299;35.160;26.100;2023-04-23T02:34:52;100938.44;;;15.76;100.00
56402;BME280;42299;35.160;26.100;2023-04-23T02:36:15;100940.25;;;15.74;100.00
56402;BME280;42299;35.160;26.100;2023-04-23T02:37:37;100944.69;;;15.72;100.00
56402;BME280;42299;35.160;26.100;2023-04-23T02:39:01;100935.81;;;15.72;100.00
56402;BME280;42299;35.160;26.100;2023-04-23T02:40:24;100935.81;;;15.73;100.00
56402;BME280;42299;35.160;26.100;2023-04-23T02:41:47;100929.56;;;15.76;100.00
56402;BME280;42299;35.160;26.100;2023-04-23T02:43:08;100934.00;;;15.78;100.00
56402;BME280;42299;35.160;26.100;2023-04-23T02:44:30;100936.69;;;15.78;100.00
56402;BME280;42299;35.160;26.100;2023-04-23T02:45:52;100938.44;;;15.78;100.00
56402;BME280;42299;35.160;26.100;2023-04-23T02:47:14;100931.34;;;15.78;100.00
56402;BME280;42299;35.160;26.100;2023-04-23T02:48:36;100940.22;;;15.80;100.00
56402;BME280;42299;35.160;26.100;2023-04-23T02:49:59;100943.75;;;15.82;100.00
56402;BME280;42299;35.160;26.100;2023-04-23T02:51:22;100928.66;;;15.84;100.00
56402;BME280;42299;35.160;26.100;2023-04-23T02:52:46;100933.09;;;15.85;100.00
56402;BME280;42299;35.160;26.100;2023-04-23T02:54:11;100932.22;;;15.85;100.00
56402;BME280;42299;35.160;26.100;2023-04-23T02:55:32;100926.91;;;15.83;100.00
56402;BME280;42299;35.160;26.100;2023-04-23T02:56:55;100920.69;;;15.83;100.00
56402;BME280;42299;35.160;26.100;2023-04-23T02:58:17;100926.03;;;15.81;100.00
56402;BME280;42299;35.160;26.100;2023-04-23T02:59:42;100926.03;;;15.78;100.00
56402;BME280;42299;35.160;26.100;2023-04-23T03:01:05;100928.69;;;15.75;100.00
56402;BME280;42299;35.160;26.100;2023-04-23T03:02:28;100931.38;;;15.74;100.00
56402;BME280;42299;35.160;26.100;2023-04-23T03:03:51;100929.59;;;15.71;100.00
56402;BME280;42299;35.160;26.100;2023-04-23T03:05:12;100931.38;;;15.71;100.00
56402;BME280;42299;35.160;26.100;2023-04-23T03:06:35;100926.03;;;15.69;100.00
56402;BME280;42299;35.160;26.100;2023-04-23T03:07:57;100926.97;;;15.68;100.00
56402;BME280;42299;35.160;26.100;2023-04-23T03:09:21;100931.41;;;15.68;100.00
56402;BME280;42299;35.160;26.100;2023-04-23T03:10:42;100940.25;;;15.67;100.00
56402;BME280;42299;35.160;26.100;2023-04-23T03:12:05;100929.63;;;15.65;100.00
56402;BME280;42299;35.160;26.100;2023-04-23T03:13:28;100938.47;;;15.64;100.00
56402;BME280;42299;35.160;26.100;2023-04-23T03:14:50;100928.72;;;15.63;100.00
56402;BME280;42299;35.160;26.100;2023-04-23T03:16:12;100926.09;;;15.62;100.00
56402;BME280;42299;35.160;26.100;2023-04-23T03:17:34;100921.66;;;15.59;100.00
56402;BME280;42299;35.160;26.100;2023-04-23T03:18:57;100930.50;;;15.57;100.00
56402;BME280;42299;35.160;26.100;2023-04-23T03:20:20;100931.44;;;15.54;100.00
56402;BME280;42299;35.160;26.100;2023-04-23T03:21:41;100922.50;;;15.50;100.00
56402;BME280;42299;35.160;26.100;2023-04-23T03:23:03;100939.38;;;15.46;100.00
56402;BME280;42299;35.160;26.100;2023-04-23T03:24:27;100922.53;;;15.43;100.00
56402;BME280;42299;35.160;26.100;2023-04-23T03:25:52;100921.66;;;15.38;100.00
56402;BME280;42299;35.160;26.100;2023-04-23T03:27:13;100924.31;;;15.35;100.00
56402;BME280;42299;35.160;26.100;2023-04-23T03:28:36;100929.66;;;15.33;100.00
56402;BME280;42299;35.160;26.100;2023-04-23T03:29:57;100926.97;;;15.32;100.00
56402;BME280;42299;35.160;26.100;2023-04-23T03:31:20;100927.84;;;15.31;100.00
56402;BME280;42299;35.160;26.100;2023-04-23T03:32:41;100934.06;;;15.31;100.00
56402;BME280;42299;35.160;26.100;2023-04-23T03:34:05;100937.63;;;15.29;100.00
56402;BME280;42299;35.160;26.100;2023-04-23T03:35:29;100945.59;;;15.26;100.00
56402;BME280;42299;35.160;26.100;2023-04-23T03:36:53;100947.38;;;15.24;100.00
56402;BME280;42299;35.160;26.100;2023-04-23T03:38:16;100949.16;;;15.25;100.00
56402;BME280;42299;35.160;26.100;2023-04-23T03:39:39;100941.16;;;15.25;100.00
56402;BME280;42299;35.160;26.100;2023-04-23T03:41:02;100939.41;;;15.22;100.00
56402;BME280;42299;35.160;26.100;2023-04-23T03:42:24;100949.16;;;15.22;100.00
56402;BME280;42299;35.160;26.100;2023-04-23T03:43:47;100958.91;;;15.21;100.00
56402;BME280;42299;35.160;26.100;2023-04-23T03:45:20;100949.16;;;15.22;100.00
56402;BME280;42299;35.160;26.100;2023-04-23T03:46:42;100953.59;;;15.23;100.00
56402;BME280;42299;35.160;26.100;2023-04-23T03:48:04;100950.91;;;15.24;100.00
56402;BME280;42299;35.160;26.100;2023-04-23T03:49:27;100947.38;;;15.24;100.00
56402;BME280;42299;35.160;26.100;2023-04-23T03:50:50;100959.78;;;15.25;100.00
56402;BME280;42299;35.160;26.100;2023-04-23T03:52:27;100954.47;;;15.23;100.00
56402;BME280;42299;35.160;26.100;2023-04-23T03:53:50;100957.13;;;15.23;100.00
56402;BME280;42299;35.160;26.100;2023-04-23T03:55:31;100960.66;;;15.24;100.00
56402;BME280;42299;35.160;26.100;2023-04-23T03:56:54;100965.09;;;15.26;100.00
56402;BME280;42299;35.160;26.100;2023-04-23T03:58:21;100961.56;;;15.27;100.00
56402;BME280;42299;35.160;26.100;2023-04-23T03:59:43;100955.34;;;15.30;100.00
56402;BME280;42299;35.160;26.100;2023-04-23T04:01:04;100952.69;;;15.30;100.00
56402;BME280;42299;35.160;26.100;2023-04-23T04:02:27;100960.66;;;15.31;100.00
56402;BME280;42299;35.160;26.100;2023-04-23T04:03:48;100961.56;;;15.30;100.00
56402;BME280;42299;35.160;26.100;2023-04-23T04:05:11;100972.19;;;15.32;100.00
56402;BME280;42299;35.160;26.100;2023-04-23T04:06:34;100972.22;;;15.35;100.00
56402;BME280;42299;35.160;26.100;2023-04-23T04:07:56;100969.53;;;15.38;100.00
56402;BME280;42299;35.160;26.100;2023-04-23T04:09:19;100965.97;;;15.43;100.00
56402;BME280;42299;35.160;26.100;2023-04-23T04:10:44;100972.19;;;15.47;100.00
56402;BME280;42299;35.160;26.100;2023-04-23T04:12:05;100966.88;;;15.48;100.00
56402;BME280;42299;35.160;26.100;2023-04-23T04:13:28;100973.97;;;15.48;100.00
56402;BME280;42299;35.160;26.100;2023-04-23T04:14:51;100974.84;;;15.45;100.00
56402;BME280;42299;35.160;26.100;2023-04-23T04:16:12;100968.63;;;15.45;100.00
56402;BME280;42299;35.160;26.100;2023-04-23T04:17:34;100966.88;;;15.47;100.00
56402;BME280;42299;35.160;26.100;2023-04-23T04:18:57;100971.28;;;15.51;100.00
56402;BME280;42299;35.160;26.100;2023-04-23T04:20:18;100982.00;;;15.56;100.00
56402;BME280;42299;35.160;26.100;2023-04-23T04:21:41;100972.19;;;15.58;100.00
56402;BME280;42299;35.160;26.100;2023-04-23T04:23:02;100966.00;;;15.60;100.00
56402;BME280;42299;35.160;26.100;2023-04-23T04:24:25;100977.53;;;15.65;100.00
56402;BME280;42299;35.160;26.100;2023-04-23T04:25:48;100971.31;;;15.72;100.00
56402;BME280;42299;35.160;26.100;2023-04-23T04:27:11;100967.72;;;15.82;100.00
56402;BME280;42299;35.160;26.100;2023-04-23T04:28:32;100973.03;;;15.90;100.00
56402;BME280;42299;35.160;26.100;2023-04-23T04:29:57;100984.53;;;16.00;100.00
56402;BME280;42299;35.160;26.100;2023-04-23T04:31:21;100984.50;;;16.10;100.00
56402;BME280;42299;35.160;26.100;2023-04-23T04:32:43;100991.59;;;16.20;100.00
56402;BME280;42299;35.160;26.100;2023-04-23T04:34:05;100986.22;;;16.25;100.00
56402;BME280;42299;35.160;26.100;2023-04-23T04:35:30;100990.63;;;16.33;100.00
56402;BME280;42299;35.160;26.100;2023-04-23T04:36:52;100987.88;;;16.50;100.00
56402;BME280;42299;35.160;26.100;2023-04-23T04:38:15;100988.72;;;16.64;100.00
56402;BME280;42299;35.160;26.100;2023-04-23T04:39:36;100984.22;;;16.79;100.00
56402;BME280;42299;35.160;26.100;2023-04-23T04:41:01;100982.34;;;16.93;100.00
56402;BME280;42299;35.160;26.100;2023-04-23T04:42:22;100988.44;;;17.07;100.00
56402;BME280;42299;35.160;26.100;2023-04-23T04:43:45;100983.03;;;17.19;100.00
56402;BME280;42299;35.160;26.100;2023-04-23T04:45:08;100984.66;;;17.34;100.00
56402;BME280;42299;35.160;26.100;2023-04-23T04:46:31;100981.00;;;17.47;100.00
56402;BME280;42299;35.160;26.100;2023-04-23T04:47:53;100989.81;;;17.58;100.00
56402;BME280;42299;35.160;26.100;2023-04-23T04:49:16;100987.94;;;17.71;100.00
56402;BME280;42299;35.160;26.100;2023-04-23T04:50:39;100994.88;;;17.85;100.00
56402;BME280;42299;35.160;26.100;2023-04-23T04:52:01;100992.06;;;17.99;100.00
56402;BME280;42299;35.160;26.100;2023-04-23T04:53:22;100992.78;;;18.15;100.00
56402;BME280;42299;35.160;26.100;2023-04-23T04:54:45;100982.81;;;18.29;100.00
56402;BME280;42299;35.160;26.100;2023-04-23T04:56:09;100984.38;;;18.47;100.00
56402;BME280;42299;35.160;26.100;2023-04-23T04:57:30;100998.44;;;18.64;100.00
56402;BME280;42299;35.160;26.100;2023-04-23T04:58:52;100995.53;;;18.81;100.00
56402;BME280;42299;35.160;26.100;2023-04-23T05:00:21;100993.47;;;18.99;100.00
56402;BME280;42299;35.160;26.100;2023-04-23T05:01:44;100988.78;;;19.14;100.00
56402;BME280;42299;35.160;26.100;2023-04-23T05:03:07;100989.50;;;19.23;100.00
56402;BME280;42299;35.160;26.100;2023-04-23T05:04:30;100990.38;;;19.25;100.00
56402;BME280;42299;35.160;26.100;2023-04-23T05:05:52;100988.66;;;19.21;100.00
56402;BME280;42299;35.160;26.100;2023-04-23T05:07:16;100998.47;;;19.22;100.00
56402;BME280;42299;35.160;26.100;2023-04-23T05:08:38;101005.59;;;19.22;100.00
56402;BME280;42299;35.160;26.100;2023-04-23T05:09:59;101003.84;;;19.21;100.00
56402;BME280;42299;35.160;26.100;2023-04-23T05:11:23;101000.34;;;19.16;100.00
56402;BME280;42299;35.160;26.100;2023-04-23T05:12:46;100995.94;;;19.11;100.00
56402;BME280;42299;35.160;26.100;2023-04-23T05:14:08;101004.06;;;19.07;100.00
56402;BME280;42299;35.160;26.100;2023-04-23T05:15:29;101011.28;;;19.02;100.00
56402;BME280;42299;35.160;26.100;2023-04-23T05:16:51;101009.50;;;18.99;100.00
56402;BME280;42299;35.160;26.100;2023-04-23T05:18:14;101007.81;;;18.94;100.00
56402;BME280;42299;35.160;26.100;2023-04-23T05:19:37;101006.91;;;18.96;100.00
56402;BME280;42299;35.160;26.100;2023-04-23T05:20:59;101012.16;;;19.01;100.00
56402;BME280;42299;35.160;26.100;2023-04-23T05:22:22;101007.63;;;19.07;100.00
56402;BME280;42299;35.160;26.100;2023-04-23T05:23:44;101011.97;;;19.15;100.00
56402;BME280;42299;35.160;26.100;2023-04-23T05:25:08;101011.81;;;19.24;100.00
56402;BME280;42299;35.160;26.100;2023-04-23T05:26:32;101017.91;;;19.33;100.00
56402;BME280;42299;35.160;26.100;2023-04-23T05:27:54;101018.69;;;19.40;100.00
56402;BME280;42299;35.160;26.100;2023-04-23T05:29:16;101019.50;;;19.48;100.00
56402;BME280;42299;35.160;26.100;2023-04-23T05:30:39;101022.03;;;19.56;100.00
56402;BME280;42299;35.160;26.100;2023-04-23T05:32:01;101016.59;;;19.60;100.00
56402;BME280;42299;35.160;26.100;2023-04-23T05:33:26;101027.25;;;19.63;100.00
56402;BME280;42299;35.160;26.100;2023-04-23T05:34:48;101025.44;;;19.65;100.00
56402;BME280;42299;35.160;26.100;2023-04-23T05:36:10;101028.88;;;19.72;100.00
56402;BME280;42299;35.160;26.100;2023-04-23T05:37:32;101026.13;;;19.76;100.00
56402;BME280;42299;35.160;26.100;2023-04-23T05:38:54;101023.28;;;19.85;100.00
56402;BME280;42299;35.160;26.100;2023-04-23T05:40:15;101025.94;;;19.87;100.00
56402;BME280;42299;35.160;26.100;2023-04-23T05:41:39;101027.72;;;19.88;100.00
56402;BME280;42299;35.160;26.100;2023-04-23T05:43:01;101033.97;;;19.88;100.00
56402;BME280;42299;35.160;26.100;2023-04-23T05:44:24;101026.75;;;19.90;100.00
56402;BME280;42299;35.160;26.100;2023-04-23T05:45:46;101032.97;;;19.94;100.00
56402;BME280;42299;35.160;26.100;2023-04-23T05:47:08;101033.78;;;19.98;100.00
56402;BME280;42299;35.160;26.100;2023-04-23T05:48:31;101033.66;;;20.04;100.00
56402;BME280;42299;35.160;26.100;2023-04-23T05:49:52;101023.00;;;20.01;100.00
56402;BME280;42299;35.160;26.100;2023-04-23T05:51:16;101029.28;;;19.98;100.00
56402;BME280;42299;35.160;26.100;2023-04-23T05:52:39;101029.38;;;19.94;100.00
56402;BME280;42299;35.160;26.100;2023-04-23T05:54:00;101033.84;;;19.95;100.00
56402;BME280;42299;35.160;26.100;2023-04-23T05:55:23;101032.06;;;19.94;100.00
56402;BME280;42299;35.160;26.100;2023-04-23T05:56:46;101033.75;;;19.99;100.00
56402;BME280;42299;35.160;26.100;2023-04-23T05:58:09;101034.56;;;20.03;100.00
56402;BME280;42299;35.160;26.100;2023-04-23T05:59:31;101029.13;;;20.07;100.00
56402;BME280;42299;35.160;26.100;2023-04-23T06:00:52;101038.88;;;20.11;100.00
56402;BME280;42299;35.160;26.100;2023-04-23T06:02:15;101042.19;;;20.24;100.00
56402;BME280;42299;35.160;26.100;2023-04-23T06:03:36;101039.28;;;20.38;100.00
56402;BME280;42299;35.160;26.100;2023-04-23T06:05:01;101037.13;;;20.55;100.00
56402;BME280;42299;35.160;26.100;2023-04-23T06:06:22;101041.00;;;20.82;100.00
56402;BME280;42299;35.160;26.100;2023-04-23T06:07:45;101039.69;;;21.01;100.00
56402;BME280;42299;35.160;26.100;2023-04-23T06:09:07;101040.34;;;21.12;100.00
56402;BME280;42299;35.160;26.100;2023-04-23T06:10:30;101042.44;;;21.38;100.00
56402;BME280;42299;35.160;26.100;2023-04-23T06:11:53;101043.56;;;21.65;100.00
56402;BME280;42299;35.160;26.100;2023-04-23T06:13:15;101038.72;;;21.79;100.00
56402;BME280;42299;35.160;26.100;2023-04-23T06:14:38;101033.09;;;21.88;100.00
56402;BME280;42299;35.160;26.100;2023-04-23T06:15:59;101040.28;;;21.86;100.00
56402;BME280;42299;35.160;26.100;2023-04-23T06:17:21;101046.81;;;21.77;100.00
56402;BME280;42299;35.160;26.100;2023-04-23T06:18:43;101049.75;;;21.67;100.00
56402;BME280;42299;35.160;26.100;2023-04-23T06:20:06;101052.50;;;21.65;100.00
56402;BME280;42299;35.160;26.100;2023-04-23T06:21:31;101050.81;;;21.60;100.00
56402;BME280;42299;35.160;26.100;2023-04-23T06:22:54;101047.53;;;21.48;100.00
56402;BME280;42299;35.160;26.100;2023-04-23T06:24:16;101054.00;;;21.40;100.00
56402;BME280;42299;35.160;26.100;2023-04-23T06:25:37;101052.34;;;21.34;100.00
56402;BME280;42299;35.160;26.100;2023-04-23T06:27:01;101051.56;;;21.31;100.00
56402;BME280;42299;35.160;26.100;2023-04-23T06:28:24;101049.06;;;21.23;100.00
56402;BME280;42299;35.160;26.100;2023-04-23T06:30:06;101048.41;;;21.12;100.00
56402;BME280;42299;35.160;26.100;2023-04-23T06:31:30;101051.25;;;21.04;100.00
56402;BME280;42299;35.160;26.100;2023-04-23T06:32:52;101049.47;;;21.03;100.00
56402;BME280;42299;35.160;26.100;2023-04-23T06:34:15;101054.69;;;21.11;100.00
56402;BME280;42299;35.160;26.100;2023-04-23T06:35:36;101054.16;;;21.34;100.00
56402;BME280;42299;35.160;26.100;2023-04-23T06:36:59;101065.25;;;21.57;100.00
56402;BME280;42299;35.160;26.100;2023-04-23T06:38:21;101063.16;;;21.68;100.00
56402;BME280;42299;35.160;26.100;2023-04-23T06:39:44;101067.75;;;21.65;100.00
56402;BME280;42299;35.160;26.100;2023-04-23T06:41:06;101056.94;;;21.66;100.00
56402;BME280;42299;35.160;26.100;2023-04-23T06:42:31;101059.22;;;21.83;100.00
56402;BME280;42299;35.160;26.100;2023-04-23T06:44:06;101064.28;;;21.94;100.00
56402;BME280;42299;35.160;26.100;2023-04-23T06:45:33;101069.63;;;21.95;100.00
56402;BME280;42299;35.160;26.100;2023-04-23T06:46:55;101056.97;;;22.00;100.00
56402;BME280;42299;35.160;26.100;2023-04-23T06:48:18;101055.06;;;22.05;100.00
56402;BME280;42299;35.160;26.100;2023-04-23T06:49:41;101059.09;;;22.21;100.00
56402;BME280;42299;35.160;26.100;2023-04-23T06:51:04;101064.22;;;22.31;100.00
56402;BME280;42299;35.160;26.100;2023-04-23T06:52:27;101065.00;;;22.34;100.00
56402;BME280;42299;35.160;26.100;2023-04-23T06:53:49;101072.09;;;22.38;100.00
56402;BME280;42299;35.160;26.100;2023-04-23T06:55:12;101069.34;;;22.40;100.00
56402;BME280;42299;35.160;26.100;2023-04-23T06:56:35;101079.22;;;22.39;100.00
56402;BME280;42299;35.160;26.100;2023-04-23T06:57:58;101077.50;;;22.37;100.00
56402;BME280;42299;35.160;26.100;2023-04-23T06:59:21;101080.38;;;22.31;100.00
56402;BME280;42299;35.160;26.100;2023-04-23T07:00:46;101078.75;;;22.25;100.00
56402;BME280;42299;35.160;26.100;2023-04-23T07:02:09;101077.88;;;22.23;100.00
56402;BME280;42299;35.160;26.100;2023-04-23T07:03:32;101082.38;;;22.22;100.00